createdAt,value
2015-12-16T00:00:08.732Z,1018.1
2015-12-16T00:01:08.640Z,1018.2
2015-12-16T00:02:08.578Z,1018.1
2015-12-16T00:03:07.800Z,1018.1
2015-12-16T00:04:08.475Z,1018.1
2015-12-16T00:05:08.430Z,1018.1
2015-12-16T00:06:08.370Z,1018
2015-12-16T00:07:08.310Z,1018
2015-12-16T00:08:08.282Z,1018.1
2015-12-16T00:09:08.219Z,1018.1
2015-12-16T00:10:08.159Z,1018.1
2015-12-16T00:11:08.099Z,1018.1
2015-12-16T00:12:08.071Z,1018.1
2015-12-16T00:13:07.980Z,1018.1
2015-12-16T00:14:07.935Z,1018.1
2015-12-16T00:15:07.893Z,1018.2
2015-12-16T00:16:07.832Z,1018
2015-12-16T00:17:07.773Z,1018.1
2015-12-16T00:18:07.728Z,1018.1
2015-12-16T00:19:07.668Z,1018.1
2015-12-16T00:20:07.609Z,1018.1
2015-12-16T00:21:07.549Z,1018.2
2015-12-16T00:22:07.537Z,1018.2
2015-12-16T00:23:07.680Z,1018.2
2015-12-16T00:24:07.401Z,1018.1
2015-12-16T00:25:07.357Z,1018.3
2015-12-16T00:26:07.282Z,1018.2
2015-12-16T00:27:07.457Z,1018.2
2015-12-16T00:28:07.179Z,1018.2
2015-12-16T00:29:07.134Z,1018.2
2015-12-16T00:30:07.059Z,1018.1
2015-12-16T00:31:07.202Z,1018.2
2015-12-16T00:32:06.954Z,1018.1
2015-12-16T00:33:06.910Z,1018.2
2015-12-16T00:34:06.881Z,1018.2
2015-12-16T00:35:06.806Z,1018.2
2015-12-16T00:36:06.746Z,1018.2
2015-12-16T00:37:06.687Z,1018.2
2015-12-16T00:38:06.673Z,1018.1
2015-12-16T00:39:07.754Z,1018.1
2015-12-16T00:40:06.523Z,1018
2015-12-16T00:41:06.666Z,1018
2015-12-16T00:42:06.420Z,1018.1
2015-12-16T00:43:06.375Z,1018.1
2015-12-16T00:44:06.300Z,1018
2015-12-16T00:45:06.678Z,1018.2
2015-12-16T00:46:06.196Z,1018.2
2015-12-16T00:47:06.151Z,1018.1
2015-12-16T00:48:06.108Z,1018.1
2015-12-16T00:49:06.031Z,1018
2015-12-16T00:50:05.988Z,1018.1
2015-12-16T00:51:05.928Z,1018
2015-12-16T00:52:05.884Z,1018.1
2015-12-16T00:53:05.825Z,1018
2015-12-16T00:54:05.984Z,1018
2015-12-16T00:55:05.703Z,1018
2015-12-16T00:56:05.658Z,1017.9
2015-12-16T00:57:05.598Z,1018.1
2015-12-16T00:58:05.554Z,1018
2015-12-16T00:59:05.495Z,1018
2015-12-16T01:00:05.653Z,1018
2015-12-16T01:01:05.375Z,1018.1
2015-12-16T01:02:05.331Z,1018
2015-12-16T01:03:05.287Z,1018
2015-12-16T01:04:05.212Z,1018
2015-12-16T01:05:05.167Z,1018
2015-12-16T01:06:05.123Z,1018
2015-12-16T01:07:05.064Z,1017.9
2015-12-16T01:08:05.019Z,1017.9
2015-12-16T01:09:04.944Z,1018
2015-12-16T01:10:04.900Z,1018.1
2015-12-16T01:11:04.839Z,1018.1
2015-12-16T01:12:04.796Z,1018.1
2015-12-16T01:13:04.752Z,1018.1
2015-12-16T01:14:04.691Z,1018.2
2015-12-16T01:15:04.616Z,1018.1
2015-12-16T01:16:04.557Z,1018.2
2015-12-16T01:17:04.513Z,1018.2
2015-12-16T01:18:04.468Z,1018.2
2015-12-16T01:19:04.408Z,1018.2
2015-12-16T01:20:04.349Z,1018.1
2015-12-16T01:21:04.289Z,1018.1
2015-12-16T01:22:24.370Z,1018.1
2015-12-16T01:23:04.217Z,1018.1
2015-12-16T01:24:04.141Z,1018.2
2015-12-16T01:25:04.316Z,1018.1
2015-12-16T01:26:04.022Z,1018.1
2015-12-16T01:27:03.977Z,1018.1
2015-12-16T01:28:03.153Z,1018
2015-12-16T01:29:03.874Z,1018.1
2015-12-16T01:30:03.830Z,1018.1
2015-12-16T01:31:03.739Z,1018.1
2015-12-16T01:32:03.929Z,1018.1
2015-12-16T01:33:03.635Z,1018.1
2015-12-16T01:34:03.591Z,1018.1
2015-12-16T01:35:03.528Z,1018.1
2015-12-16T01:36:03.468Z,1018.1
2015-12-16T01:37:03.408Z,1018.2
2015-12-16T01:38:03.365Z,1018
2015-12-16T01:39:03.305Z,1018.1
2015-12-16T01:40:03.261Z,1018
2015-12-16T01:41:03.201Z,1018
2015-12-16T01:42:03.157Z,1018.1
2015-12-16T01:43:03.082Z,1018.2
2015-12-16T01:44:03.038Z,1018.1
2015-12-16T01:45:02.994Z,1018
2015-12-16T01:46:02.918Z,1018.1
2015-12-16T01:47:02.874Z,1018.2
2015-12-16T01:48:02.813Z,1018
2015-12-16T01:49:02.770Z,1018
2015-12-16T01:50:02.710Z,1018.1
2015-12-16T01:51:02.650Z,1018.1
2015-12-16T01:52:02.591Z,1018
2015-12-16T01:53:02.734Z,1018
2015-12-16T01:54:01.956Z,1018
2015-12-16T01:55:02.427Z,1018
2015-12-16T01:56:02.383Z,1018.1
2015-12-16T01:57:01.574Z,1018
2015-12-16T01:58:02.248Z,1017.9
2015-12-16T01:59:02.204Z,1018
2015-12-16T02:00:02.144Z,1018.1
2015-12-16T02:01:02.105Z,1018.1
2015-12-16T02:02:01.295Z,1018.1
2015-12-16T02:03:01.970Z,1018
2015-12-16T02:04:01.941Z,1018
2015-12-16T02:05:01.882Z,1018
2015-12-16T02:06:01.822Z,1018.1
2015-12-16T02:07:01.731Z,1018
2015-12-16T02:08:01.906Z,1018.1
2015-12-16T02:09:01.627Z,1018
2015-12-16T02:10:01.567Z,1018
2015-12-16T02:11:01.523Z,1018
2015-12-16T02:12:01.494Z,1018
2015-12-16T02:13:01.400Z,1017.9
2015-12-16T02:14:01.340Z,1017.9
2015-12-16T02:15:01.281Z,1018.1
2015-12-16T02:16:01.643Z,1018.1
2015-12-16T02:17:01.178Z,1018
2015-12-16T02:18:01.117Z,1018
2015-12-16T02:19:01.073Z,1018.1
2015-12-16T02:20:01.014Z,1017.8
2015-12-16T02:21:00.954Z,1018
2015-12-16T02:22:00.910Z,1017.9
2015-12-16T02:23:00.865Z,1018
2015-12-16T02:24:00.791Z,1017.9
2015-12-16T02:25:00.731Z,1017.9
2015-12-16T02:26:00.687Z,1018
2015-12-16T02:27:00.627Z,1018
2015-12-16T02:28:00.583Z,1017.9
2015-12-16T02:29:00.523Z,1018
2015-12-16T02:30:00.448Z,1017.9
2015-12-16T02:31:00.403Z,1018
2015-12-16T02:32:00.360Z,1018
2015-12-16T02:33:00.300Z,1017.8
2015-12-16T02:34:00.240Z,1017.9
2015-12-16T02:35:00.180Z,1017.9
2015-12-16T02:36:00.324Z,1017.8
2015-12-16T02:37:00.076Z,1017.8
2015-12-16T02:38:00.251Z,1017.8
2015-12-16T02:39:00.004Z,1017.8
2015-12-16T02:39:59.913Z,1017.8
2015-12-16T02:40:59.870Z,1017.8
2015-12-16T02:41:59.840Z,1017.8
2015-12-16T02:42:59.734Z,1017.8
2015-12-16T02:43:59.690Z,1017.9
2015-12-16T02:44:59.631Z,1017.9
2015-12-16T02:45:59.586Z,1017.8
2015-12-16T02:46:59.526Z,1017.8
2015-12-16T02:47:59.544Z,1017.7
2015-12-16T02:48:59.422Z,1017.9
2015-12-16T02:49:58.609Z,1017.8
2015-12-16T02:50:59.300Z,1017.7
2015-12-16T02:51:59.255Z,1017.8
2015-12-16T02:52:59.586Z,1017.8
2015-12-16T02:53:59.136Z,1017.7
2015-12-16T02:54:59.311Z,1017.8
2015-12-16T02:55:59.033Z,1017.7
2015-12-16T02:56:58.972Z,1017.8
2015-12-16T02:57:58.897Z,1017.7
2015-12-16T02:58:58.837Z,1017.7
2015-12-16T02:59:58.794Z,1017.8
2015-12-16T03:00:58.734Z,1017.7
2015-12-16T03:01:58.720Z,1017.7
2015-12-16T03:02:58.630Z,1017.7
2015-12-16T03:03:58.601Z,1017.6
2015-12-16T03:04:58.541Z,1017.8
2015-12-16T03:05:58.481Z,1017.7
2015-12-16T03:06:58.422Z,1017.8
2015-12-16T03:07:58.362Z,1017.8
2015-12-16T03:08:58.303Z,1017.9
2015-12-16T03:09:58.258Z,1017.7
2015-12-16T03:10:58.402Z,1017.8
2015-12-16T03:11:58.154Z,1017.8
2015-12-16T03:12:58.094Z,1017.9
2015-12-16T03:13:58.019Z,1017.8
2015-12-16T03:14:57.976Z,1017.7
2015-12-16T03:15:57.931Z,1017.7
2015-12-16T03:16:57.886Z,1017.8
2015-12-16T03:17:58.062Z,1017.6
2015-12-16T03:18:57.752Z,1017.6
2015-12-16T03:19:57.708Z,1017.7
2015-12-16T03:20:57.648Z,1017.7
2015-12-16T03:21:57.682Z,1017.7
2015-12-16T03:22:57.575Z,1017.8
2015-12-16T03:23:57.485Z,1017.7
2015-12-16T03:24:57.659Z,1017.7
2015-12-16T03:25:57.365Z,1017.6
2015-12-16T03:26:57.321Z,1017.6
2015-12-16T03:27:57.261Z,1017.6
2015-12-16T03:28:57.199Z,1017.8
2015-12-16T03:29:57.358Z,1017.7
2015-12-16T03:30:57.141Z,1017.8
2015-12-16T03:31:57.019Z,1017.7
2015-12-16T03:32:56.975Z,1017.6
2015-12-16T03:33:56.915Z,1017.7
2015-12-16T03:34:56.856Z,1017.7
2015-12-16T03:35:56.827Z,1017.6
2015-12-16T03:36:56.736Z,1017.6
2015-12-16T03:37:56.691Z,1017.7
2015-12-16T03:38:56.633Z,1017.7
2015-12-16T03:39:56.588Z,1017.7
2015-12-16T03:40:56.529Z,1017.7
2015-12-16T03:41:56.469Z,1017.9
2015-12-16T03:42:56.394Z,1017.8
2015-12-16T03:43:56.396Z,1017.8
2015-12-16T03:44:56.352Z,1017.8
2015-12-16T03:45:56.261Z,1017.7
2015-12-16T03:46:56.216Z,1017.6
2015-12-16T03:47:56.126Z,1017.8
2015-12-16T03:48:56.082Z,1017.7
2015-12-16T03:49:56.022Z,1017.6
2015-12-16T03:50:55.963Z,1017.7
2015-12-16T03:51:55.902Z,1017.6
2015-12-16T03:52:55.843Z,1017.7
2015-12-16T03:53:55.799Z,1017.8
2015-12-16T03:54:55.739Z,1017.6
2015-12-16T03:55:55.679Z,1017.6
2015-12-16T03:56:55.619Z,1017.6
2015-12-16T03:57:55.576Z,1017.6
2015-12-16T03:58:55.516Z,1017.6
2015-12-16T03:59:55.457Z,1017.6
2015-12-16T04:00:55.412Z,1017.6
2015-12-16T04:01:55.352Z,1017.5
2015-12-16T04:02:55.293Z,1017.5
2015-12-16T04:03:55.232Z,1017.6
2015-12-16T04:04:55.173Z,1017.5
2015-12-16T04:05:55.176Z,1017.6
2015-12-16T04:06:55.066Z,1017.5
2015-12-16T04:07:55.022Z,1017.6
2015-12-16T04:08:54.978Z,1017.6
2015-12-16T04:09:54.902Z,1017.5
2015-12-16T04:10:54.843Z,1017.4
2015-12-16T04:11:54.798Z,1017.4
2015-12-16T04:12:54.739Z,1017.3
2015-12-16T04:13:53.913Z,1017.4
2015-12-16T04:14:54.650Z,1017.4
2015-12-16T04:15:54.559Z,1017.3
2015-12-16T04:16:54.516Z,1017.4
2015-12-16T04:17:54.456Z,1017.3
2015-12-16T04:18:54.412Z,1017.3
2015-12-16T04:19:54.337Z,1017.4
2015-12-16T04:20:54.370Z,1017.3
2015-12-16T04:21:54.232Z,1017.3
2015-12-16T04:22:54.188Z,1017.3
2015-12-16T04:23:54.191Z,1017.3
2015-12-16T04:24:54.069Z,1017.4
2015-12-16T04:25:54.025Z,1017.4
2015-12-16T04:26:54.465Z,1017.4
2015-12-16T04:27:53.906Z,1017.4
2015-12-16T04:28:53.845Z,1017.4
2015-12-16T04:29:53.989Z,1017.4
2015-12-16T04:30:53.726Z,1017.3
2015-12-16T04:31:53.682Z,1017.3
2015-12-16T04:32:53.622Z,1017.4
2015-12-16T04:34:10.735Z,1017.3
2015-12-16T04:34:55.565Z,1017.3
2015-12-16T04:36:08.537Z,1017.4
2015-12-16T04:36:54.915Z,1017.5
2015-12-16T04:38:08.651Z,1017.4
2015-12-16T04:39:08.951Z,1017.5
2015-12-16T04:39:56.876Z,1017.4
2015-12-16T04:41:08.238Z,1017.3
2015-12-16T04:41:53.695Z,1017.5
2015-12-16T04:42:53.712Z,1017.3
2015-12-16T04:43:53.043Z,1017.3
2015-12-16T04:44:52.965Z,1017.3
2015-12-16T04:45:52.920Z,1017.5
2015-12-16T04:46:52.862Z,1017.5
2015-12-16T04:48:07.320Z,1017.4
2015-12-16T04:48:56.398Z,1017.4
2015-12-16T04:49:53.494Z,1017.2
2015-12-16T04:50:52.653Z,1017.3
2015-12-16T04:52:07.128Z,1017.3
2015-12-16T04:53:06.678Z,1017.2
2015-12-16T04:53:52.475Z,1017.3
2015-12-16T04:55:52.356Z,1017.2
2015-12-16T04:57:06.686Z,1017.2
2015-12-16T04:58:06.673Z,1017.2
2015-12-16T04:58:52.207Z,1017.2
2015-12-16T04:59:52.162Z,1017.3
2015-12-16T05:00:52.353Z,1017
2015-12-16T05:01:52.043Z,1017.2
2015-12-16T05:02:51.983Z,1017.1
2015-12-16T05:03:51.923Z,1017
2015-12-16T05:04:51.880Z,1017.1
2015-12-16T05:05:51.836Z,1017.2
2015-12-16T05:06:51.760Z,1017.2
2015-12-16T05:07:51.170Z,1017.2
2015-12-16T05:08:51.641Z,1017.2
2015-12-16T05:09:51.597Z,1017.2
2015-12-16T05:10:51.552Z,1017.3
2015-12-16T05:11:51.492Z,1017.2
2015-12-16T05:12:51.433Z,1017.2
2015-12-16T05:13:51.373Z,1017.2
2015-12-16T05:14:51.314Z,1017.2
2015-12-16T05:15:51.269Z,1017.2
2015-12-16T05:16:51.210Z,1017.1
2015-12-16T05:17:51.150Z,1017.2
2015-12-16T05:18:51.090Z,1017.2
2015-12-16T05:19:51.047Z,1017.1
2015-12-16T05:20:51.002Z,1017.2
2015-12-16T05:21:50.927Z,1017
2015-12-16T05:22:50.867Z,1017.3
2015-12-16T05:23:51.025Z,1017.1
2015-12-16T05:24:50.760Z,1017.2
2015-12-16T05:25:50.700Z,1017.2
2015-12-16T05:26:50.656Z,1017.2
2015-12-16T05:27:50.783Z,1017.2
2015-12-16T05:28:50.552Z,1017.2
2015-12-16T05:29:50.477Z,1017.3
2015-12-16T05:31:04.560Z,1017.3
2015-12-16T05:31:50.372Z,1017.2
2015-12-16T05:32:50.313Z,1017.2
2015-12-16T05:33:50.269Z,1017.2
2015-12-16T05:34:50.210Z,1017.1
2015-12-16T05:35:50.150Z,1017.3
2015-12-16T05:36:50.091Z,1017.3
2015-12-16T05:37:50.031Z,1017.2
2015-12-16T05:38:49.971Z,1017.1
2015-12-16T05:39:50.145Z,1017.2
2015-12-16T05:40:49.866Z,1017.2
2015-12-16T05:41:49.907Z,1017.2
2015-12-16T05:42:49.818Z,1017.3
2015-12-16T05:43:49.783Z,1017.2
2015-12-16T05:44:57.090Z,1017.2
2015-12-16T05:45:50.171Z,1017.2
2015-12-16T05:46:49.596Z,1017.1
2015-12-16T05:47:49.479Z,1017.2
2015-12-16T05:48:49.419Z,1017.1
2015-12-16T05:49:48.640Z,1017.2
2015-12-16T05:50:49.330Z,1017.2
2015-12-16T05:51:49.286Z,1017.1
2015-12-16T05:52:49.226Z,1017.2
2015-12-16T05:53:49.136Z,1017.2
2015-12-16T05:54:49.092Z,1017.1
2015-12-16T05:55:49.219Z,1017.1
2015-12-16T05:56:49.206Z,1017.1
2015-12-16T05:57:48.944Z,1017.2
2015-12-16T05:58:48.867Z,1017.1
2015-12-16T05:59:48.809Z,1017.1
2015-12-16T06:00:48.592Z,1017
2015-12-16T06:01:48.705Z,1017
2015-12-16T06:02:48.661Z,1017
2015-12-16T06:03:48.789Z,1017.1
2015-12-16T06:04:48.526Z,1017
2015-12-16T06:05:48.466Z,1017.1
2015-12-16T06:06:48.421Z,1017.2
2015-12-16T06:07:48.233Z,1017
2015-12-16T06:08:48.346Z,1017.1
2015-12-16T06:09:48.255Z,1017.1
2015-12-16T06:10:48.211Z,1017
2015-12-16T06:11:48.136Z,1017
2015-12-16T06:12:48.108Z,1017
2015-12-16T06:13:48.032Z,1017.1
2015-12-16T06:14:48.175Z,1017.1
2015-12-16T06:15:47.944Z,1017
2015-12-16T06:16:48.087Z,1017
2015-12-16T06:17:47.839Z,1017.1
2015-12-16T06:18:47.764Z,1017.2
2015-12-16T06:19:47.689Z,1017.1
2015-12-16T06:20:47.675Z,1017.3
2015-12-16T06:21:47.585Z,1017.2
2015-12-16T06:22:47.541Z,1017.2
2015-12-16T06:23:47.481Z,1017.2
2015-12-16T06:24:47.655Z,1017.2
2015-12-16T06:25:47.361Z,1017.2
2015-12-16T06:26:47.302Z,1017.2
2015-12-16T06:27:47.242Z,1017
2015-12-16T06:28:47.214Z,1017.1
2015-12-16T06:29:47.123Z,1017.2
2015-12-16T06:30:47.282Z,1017
2015-12-16T06:31:47.035Z,1017.1
2015-12-16T06:32:46.975Z,1017.1
2015-12-16T06:33:46.931Z,1017.1
2015-12-16T06:34:46.856Z,1017.1
2015-12-16T06:35:46.796Z,1017.2
2015-12-16T06:36:46.736Z,1017.2
2015-12-16T06:37:46.691Z,1016.8
2015-12-16T06:38:46.647Z,1017
2015-12-16T06:39:46.572Z,1017.1
2015-12-16T06:40:46.513Z,1017
2015-12-16T06:41:46.468Z,1017.1
2015-12-16T06:42:46.408Z,1016.9
2015-12-16T06:43:46.349Z,1016.9
2015-12-16T06:44:46.524Z,1017
2015-12-16T06:45:46.244Z,1017
2015-12-16T06:46:46.201Z,1017
2015-12-16T06:47:46.122Z,1017
2015-12-16T06:48:46.063Z,1017
2015-12-16T06:49:46.019Z,1017.1
2015-12-16T06:50:45.959Z,1017
2015-12-16T06:51:45.915Z,1017
2015-12-16T06:52:45.855Z,1016.9
2015-12-16T06:53:45.796Z,1016.9
2015-12-16T06:54:45.001Z,1017
2015-12-16T06:55:45.676Z,1017.1
2015-12-16T06:56:45.632Z,1017
2015-12-16T06:57:44.838Z,1017
2015-12-16T06:58:45.513Z,1016.9
2015-12-16T06:59:45.453Z,1016.9
2015-12-16T07:00:45.393Z,1016.9
2015-12-16T07:01:45.332Z,1017
2015-12-16T07:02:45.288Z,1017
2015-12-16T07:03:45.229Z,1016.9
2015-12-16T07:04:45.185Z,1017
2015-12-16T07:05:45.126Z,1017
2015-12-16T07:06:45.082Z,1016.9
2015-12-16T07:07:45.007Z,1017
2015-12-16T07:08:44.962Z,1017
2015-12-16T07:09:44.918Z,1017
2015-12-16T07:10:44.843Z,1016.9
2015-12-16T07:11:45.017Z,1017.1
2015-12-16T07:12:44.927Z,1017
2015-12-16T07:13:44.663Z,1017.1
2015-12-16T07:14:44.619Z,1017.1
2015-12-16T07:15:44.559Z,1017.2
2015-12-16T07:16:44.702Z,1017.1
2015-12-16T07:17:44.440Z,1017.1
2015-12-16T07:18:44.379Z,1017
2015-12-16T07:19:44.336Z,1017.2
2015-12-16T07:20:43.510Z,1017
2015-12-16T07:21:44.216Z,1017.1
2015-12-16T07:22:44.156Z,1017.1
2015-12-16T07:23:44.346Z,1017.2
2015-12-16T07:24:44.037Z,1017.1
2015-12-16T07:25:43.993Z,1017.2
2015-12-16T07:26:43.962Z,1017
2015-12-16T07:27:43.887Z,1017.1
2015-12-16T07:28:43.811Z,1017.1
2015-12-16T07:29:43.001Z,1017.1
2015-12-16T07:30:43.707Z,1017
2015-12-16T07:31:43.679Z,1017.2
2015-12-16T07:32:43.587Z,1017
2015-12-16T07:33:43.746Z,1017
2015-12-16T07:34:43.468Z,1017
2015-12-16T07:35:43.424Z,1017.1
2015-12-16T07:36:43.379Z,1017.1
2015-12-16T07:37:43.320Z,1017
2015-12-16T07:38:43.260Z,1017
2015-12-16T07:39:43.201Z,1017.1
2015-12-16T07:40:43.140Z,1017.1
2015-12-16T07:41:43.112Z,1017.1
2015-12-16T07:42:43.068Z,1017.1
2015-12-16T07:43:43.228Z,1017.1
2015-12-16T07:44:42.934Z,1017
2015-12-16T07:45:42.873Z,1017.1
2015-12-16T07:46:42.814Z,1017.1
2015-12-16T07:47:42.770Z,1017
2015-12-16T07:48:42.710Z,1017.1
2015-12-16T07:49:42.650Z,1016.9
2015-12-16T07:50:42.606Z,1017
2015-12-16T07:51:42.546Z,1017.1
2015-12-16T07:52:42.487Z,1017.1
2015-12-16T07:53:42.662Z,1017
2015-12-16T07:54:42.367Z,1017.1
2015-12-16T07:55:42.324Z,1017
2015-12-16T07:56:42.264Z,1017
2015-12-16T07:57:42.220Z,1017.1
2015-12-16T07:58:42.159Z,1017.1
2015-12-16T07:59:42.287Z,1017.1
2015-12-16T08:00:42.040Z,1017.1
2015-12-16T08:01:42.215Z,1017.1
2015-12-16T08:02:41.920Z,1017.1
2015-12-16T08:03:41.908Z,1017.2
2015-12-16T08:04:41.814Z,1017.1
2015-12-16T08:05:41.753Z,1017.2
2015-12-16T08:06:41.695Z,1017.1
2015-12-16T08:07:41.651Z,1017
2015-12-16T08:08:41.622Z,1017
2015-12-16T08:09:41.578Z,1017.1
2015-12-16T08:10:41.486Z,1017
2015-12-16T08:11:41.428Z,1017
2015-12-16T08:12:41.367Z,1017.1
2015-12-16T08:13:41.322Z,1017
2015-12-16T08:14:41.279Z,1017.1
2015-12-16T08:15:41.204Z,1017.1
2015-12-16T08:16:41.347Z,1017.1
2015-12-16T08:17:41.084Z,1017.1
2015-12-16T08:18:41.040Z,1017
2015-12-16T08:19:40.995Z,1017
2015-12-16T08:20:40.920Z,1017
2015-12-16T08:21:40.876Z,1016.9
2015-12-16T08:22:40.832Z,1017
2015-12-16T08:23:40.757Z,1017
2015-12-16T08:24:40.713Z,1017
2015-12-16T08:25:40.669Z,1017
2015-12-16T08:26:40.593Z,1017
2015-12-16T08:27:40.534Z,1017
2015-12-16T08:28:40.475Z,1016.9
2015-12-16T08:29:40.445Z,1016.9
2015-12-16T08:30:40.386Z,1016.9
2015-12-16T08:31:40.311Z,1016.9
2015-12-16T08:32:40.250Z,1016.8
2015-12-16T08:33:40.207Z,1017
2015-12-16T08:34:40.162Z,1016.9
2015-12-16T08:35:40.103Z,1016.9
2015-12-16T08:36:40.247Z,1016.9
2015-12-16T08:37:39.983Z,1017
2015-12-16T08:38:39.938Z,1017
2015-12-16T08:39:39.880Z,1017
2015-12-16T08:40:39.835Z,1016.9
2015-12-16T08:41:39.775Z,1016.9
2015-12-16T08:42:39.697Z,1017.1
2015-12-16T08:43:39.653Z,1016.8
2015-12-16T08:44:39.828Z,1016.9
2015-12-16T08:45:39.533Z,1016.8
2015-12-16T08:46:39.489Z,1016.8
2015-12-16T08:47:39.430Z,1016.9
2015-12-16T08:48:39.361Z,1017
2015-12-16T08:49:39.495Z,1017
2015-12-16T08:50:39.236Z,1017
2015-12-16T08:51:39.166Z,1017
2015-12-16T08:52:39.117Z,1016.8
2015-12-16T08:53:39.039Z,1017
2015-12-16T08:54:38.976Z,1016.9
2015-12-16T08:55:38.929Z,1016.9
2015-12-16T08:56:38.881Z,1016.9
2015-12-16T08:57:38.817Z,1016.9
2015-12-16T08:58:38.741Z,1016.8
2015-12-16T08:59:38.681Z,1016.9
2015-12-16T09:00:38.624Z,1016.9
2015-12-16T09:01:38.578Z,1016.8
2015-12-16T09:02:38.519Z,1016.9
2015-12-16T09:03:38.458Z,1016.8
2015-12-16T09:04:38.414Z,1016.7
2015-12-16T09:05:38.401Z,1016.7
2015-12-16T09:06:38.293Z,1016.8
2015-12-16T09:07:38.250Z,1016.6
2015-12-16T09:08:38.189Z,1016.8
2015-12-16T09:09:38.113Z,1016.8
2015-12-16T09:10:38.084Z,1016.8
2015-12-16T09:11:38.009Z,1016.7
2015-12-16T09:12:37.417Z,1016.8
2015-12-16T09:13:37.904Z,1016.7
2015-12-16T09:14:37.845Z,1016.7
2015-12-16T09:15:37.784Z,1016.7
2015-12-16T09:16:37.740Z,1016.6
2015-12-16T09:17:37.681Z,1016.7
2015-12-16T09:18:37.637Z,1016.7
2015-12-16T09:19:37.559Z,1016.7
2015-12-16T09:20:37.514Z,1016.7
2015-12-16T09:21:37.455Z,1016.7
2015-12-16T09:22:37.394Z,1016.6
2015-12-16T09:23:37.351Z,1016.6
2015-12-16T09:24:37.306Z,1016.7
2015-12-16T09:25:37.247Z,1016.6
2015-12-16T09:26:37.172Z,1016.7
2015-12-16T09:27:37.127Z,1016.7
2015-12-16T09:28:37.084Z,1016.6
2015-12-16T09:29:37.023Z,1016.6
2015-12-16T09:30:36.965Z,1016.6
2015-12-16T09:31:36.154Z,1016.6
2015-12-16T09:32:36.846Z,1016.6
2015-12-16T09:33:36.801Z,1016.3
2015-12-16T09:34:36.757Z,1016.5
2015-12-16T09:35:36.682Z,1016.4
2015-12-16T09:36:36.872Z,1016.1
2015-12-16T09:37:36.578Z,1016
2015-12-16T09:38:36.518Z,1016.4
2015-12-16T09:39:36.474Z,1016.3
2015-12-16T09:40:36.430Z,1016.5
2015-12-16T09:41:36.355Z,1016.5
2015-12-16T09:42:36.295Z,1016.7
2015-12-16T09:43:36.110Z,1016.6
2015-12-16T09:44:36.206Z,1016.6
2015-12-16T09:45:36.162Z,1016.5
2015-12-16T09:46:36.087Z,1016.6
2015-12-16T09:47:36.027Z,1016.5
2015-12-16T09:48:35.984Z,1016.3
2015-12-16T09:49:35.923Z,1016.6
2015-12-16T09:50:35.864Z,1016.4
2015-12-16T09:51:35.804Z,1016.5
2015-12-16T09:52:35.760Z,1016.4
2015-12-16T09:53:35.701Z,1016.3
2015-12-16T09:54:35.656Z,1016.5
2015-12-16T09:55:35.595Z,1016.2
2015-12-16T09:56:35.551Z,1016.4
2015-12-16T09:57:35.473Z,1016.4
2015-12-16T09:58:35.429Z,1016.1
2015-12-16T09:59:35.386Z,1016.4
2015-12-16T10:00:35.326Z,1016.4
2015-12-16T10:01:35.282Z,1016.3
2015-12-16T10:02:35.206Z,1016.4
2015-12-16T10:03:35.162Z,1016.3
2015-12-16T10:04:35.290Z,1016.5
2015-12-16T10:05:35.042Z,1016.4
2015-12-16T10:06:35.014Z,1016.3
2015-12-16T10:07:34.939Z,1016.3
2015-12-16T10:08:34.896Z,1016.2
2015-12-16T10:09:34.835Z,1016.2
2015-12-16T10:10:34.791Z,1016.1
2015-12-16T10:11:34.732Z,1016.1
2015-12-16T10:12:34.672Z,1016.1
2015-12-16T10:13:34.612Z,1016.1
2015-12-16T10:14:34.567Z,1016.1
2015-12-16T10:15:34.523Z,1016
2015-12-16T10:16:34.464Z,1016.1
2015-12-16T10:17:34.420Z,1016.1
2015-12-16T10:18:34.360Z,1016
2015-12-16T10:19:34.284Z,1016.1
2015-12-16T10:20:34.241Z,1016.2
2015-12-16T10:21:34.197Z,1016.2
2015-12-16T10:22:34.152Z,1016.2
2015-12-16T10:23:34.077Z,1016
2015-12-16T10:24:34.017Z,1016
2015-12-16T10:25:33.239Z,1016
2015-12-16T10:26:33.914Z,1016.1
2015-12-16T10:27:33.134Z,1016.1
2015-12-16T10:28:33.809Z,1016.2
2015-12-16T10:29:33.750Z,1016.2
2015-12-16T10:30:33.690Z,1016.2
2015-12-16T10:31:33.662Z,1016.1
2015-12-16T10:32:33.602Z,1016.2
2015-12-16T10:33:33.542Z,1016
2015-12-16T10:34:33.482Z,1016.2
2015-12-16T10:35:33.427Z,1016.1
2015-12-16T10:36:33.383Z,1015.9
2015-12-16T10:37:33.336Z,1016.1
2015-12-16T10:38:33.261Z,1016
2015-12-16T10:39:33.202Z,1016
2015-12-16T10:40:33.158Z,1015.9
2015-12-16T10:41:33.113Z,1015.9
2015-12-16T10:42:33.069Z,1015.9
2015-12-16T10:43:33.009Z,1015.8
2015-12-16T10:44:32.933Z,1015.9
2015-12-16T10:45:32.889Z,1015.9
2015-12-16T10:46:32.846Z,1015.9
2015-12-16T10:47:32.817Z,1015.8
2015-12-16T10:48:32.757Z,1015.8
2015-12-16T10:49:32.683Z,1015.8
2015-12-16T10:50:32.622Z,1015.8
2015-12-16T10:51:32.578Z,1015.8
2015-12-16T10:52:32.705Z,1015.8
2015-12-16T10:53:32.474Z,1015.8
2015-12-16T10:54:32.399Z,1015.7
2015-12-16T10:55:32.589Z,1015.8
2015-12-16T10:56:32.311Z,1015.7
2015-12-16T10:57:32.251Z,1015.7
2015-12-16T10:58:32.191Z,1015.8
2015-12-16T10:59:32.147Z,1015.8
2015-12-16T11:00:32.102Z,1015.8
2015-12-16T11:01:32.044Z,1015.8
2015-12-16T11:02:31.983Z,1015.9
2015-12-16T11:03:31.924Z,1015.8
2015-12-16T11:04:31.880Z,1015.7
2015-12-16T11:05:31.839Z,1015.7
2015-12-16T11:06:31.764Z,1015.7
2015-12-16T11:07:31.704Z,1015.7
2015-12-16T11:08:31.676Z,1015.8
2015-12-16T11:09:31.616Z,1015.6
2015-12-16T11:10:31.556Z,1015.6
2015-12-16T11:11:31.497Z,1015.7
2015-12-16T11:12:31.437Z,1015.7
2015-12-16T11:13:31.392Z,1015.7
2015-12-16T11:14:31.348Z,1015.8
2015-12-16T11:15:31.286Z,1015.7
2015-12-16T11:16:31.241Z,1015.7
2015-12-16T11:17:31.167Z,1015.7
2015-12-16T11:18:31.138Z,1015.6
2015-12-16T11:19:31.078Z,1015.7
2015-12-16T11:20:31.034Z,1015.8
2015-12-16T11:21:30.958Z,1015.6
2015-12-16T11:22:30.914Z,1015.7
2015-12-16T11:23:30.839Z,1015.7
2015-12-16T11:24:30.795Z,1015.6
2015-12-16T11:25:30.750Z,1015.6
2015-12-16T11:26:30.692Z,1015.6
2015-12-16T11:27:30.631Z,1015.7
2015-12-16T11:28:30.822Z,1015.6
2015-12-16T11:29:30.527Z,1015.6
2015-12-16T11:30:30.483Z,1015.5
2015-12-16T11:31:30.439Z,1015.7
2015-12-16T11:32:30.599Z,1015.6
2015-12-16T11:33:30.320Z,1015.6
2015-12-16T11:34:30.261Z,1015.5
2015-12-16T11:35:30.216Z,1015.4
2015-12-16T11:36:30.172Z,1015.5
2015-12-16T11:37:30.097Z,1015.6
2015-12-16T11:38:30.052Z,1015.5
2015-12-16T11:39:29.977Z,1015.5
2015-12-16T11:40:29.933Z,1015.4
2015-12-16T11:41:29.905Z,1015.4
2015-12-16T11:42:29.844Z,1015.3
2015-12-16T11:43:29.785Z,1015.4
2015-12-16T11:44:29.741Z,1015.5
2015-12-16T11:45:29.681Z,1015.4
2015-12-16T11:46:29.637Z,1015.5
2015-12-16T11:47:29.563Z,1015.4
2015-12-16T11:48:29.737Z,1015.5
2015-12-16T11:49:29.459Z,1015.3
2015-12-16T11:50:29.399Z,1015.4
2015-12-16T11:51:29.356Z,1015.3
2015-12-16T11:52:29.295Z,1015.3
2015-12-16T11:53:29.251Z,1015.3
2015-12-16T11:54:29.395Z,1015.3
2015-12-16T11:55:29.334Z,1015.3
2015-12-16T11:56:29.100Z,1015.4
2015-12-16T11:57:29.040Z,1015.4
2015-12-16T11:58:28.964Z,1015.5
2015-12-16T11:59:28.936Z,1015.3
2015-12-16T12:00:28.862Z,1015.3
2015-12-16T12:01:28.817Z,1015.3
2015-12-16T12:02:28.773Z,1015.5
2015-12-16T12:03:28.932Z,1015.4
2015-12-16T12:04:28.659Z,1015.4
2015-12-16T12:05:28.833Z,1015.4
2015-12-16T12:06:28.539Z,1015.4
2015-12-16T12:07:28.480Z,1015.4
2015-12-16T12:08:28.435Z,1015.3
2015-12-16T12:09:28.375Z,1015.3
2015-12-16T12:10:28.316Z,1015.3
2015-12-16T12:11:28.277Z,1015.2
2015-12-16T12:12:28.201Z,1015.2
2015-12-16T12:13:28.157Z,1015.2
2015-12-16T12:14:28.113Z,1015.3
2015-12-16T12:15:28.053Z,1015.2
2015-12-16T12:16:27.993Z,1015.2
2015-12-16T12:17:27.949Z,1015.2
2015-12-16T12:18:28.093Z,1015.3
2015-12-16T12:19:27.111Z,1015.2
2015-12-16T12:20:27.785Z,1015.2
2015-12-16T12:21:27.742Z,1015.3
2015-12-16T12:22:27.667Z,1015.3
2015-12-16T12:23:27.623Z,1015.2
2015-12-16T12:24:27.564Z,1015.3
2015-12-16T12:25:27.503Z,1015.2
2015-12-16T12:26:27.460Z,1015.2
2015-12-16T12:27:27.400Z,1015.2
2015-12-16T12:28:27.340Z,1015.2
2015-12-16T12:29:27.296Z,1015.2
2015-12-16T12:30:27.237Z,1015.1
2015-12-16T12:31:27.223Z,1015.1
2015-12-16T12:32:27.336Z,1015.2
2015-12-16T12:33:27.070Z,1015.2
2015-12-16T12:34:27.010Z,1015.2
2015-12-16T12:35:26.966Z,1015.2
2015-12-16T12:36:26.921Z,1015.2